Time;durP1;ratioP1;P1;durP2;ratioP2;P2;SDS_P1;SDS_P2;PMS_P1;PMS_P2;Temp;Humidity;BMP_temperature;BMP_pressure;BME280_temperature;BME280_humidity;BME280_pressure;Samples;Min_cycle;Max_cycle;Signal;HPM_P1;HPM_P2
2021/09/19 00:03:22;;;;;;;12.13;10.93;;;;;;;12.02;100.00;101507.13;10498761;28;20443;-59
2021/09/19 00:08:27;;;;;;;11.77;10.55;;;;;;;12.01;100.00;101508.06;10498096;28;20416;-60
2021/09/19 00:13:29;;;;;;;12.18;10.98;;;;;;;12.00;100.00;101506.34;10498434;28;20169;-61
2021/09/19 00:18:32;;;;;;;11.07;9.90;;;;;;;12.01;100.00;101498.41;10497976;28;20045;-58
2021/09/19 00:23:34;;;;;;;10.30;9.30;;;;;;;12.00;100.00;101493.25;10497748;28;20045;-58
2021/09/19 00:28:36;;;;;;;10.50;9.50;;;;;;;11.98;100.00;101492.47;10497648;28;20056;-59
2021/09/19 00:33:39;;;;;;;10.82;9.82;;;;;;;12.06;100.00;101487.69;10497731;28;20507;-58
2021/09/19 00:38:41;;;;;;;13.95;12.57;;;;;;;12.00;100.00;101490.63;10497842;28;20136;-58
2021/09/19 00:43:44;;;;;;;15.18;13.52;;;;;;;11.78;100.00;101489.06;10497601;28;20055;-59
2021/09/19 00:48:46;;;;;;;15.02;13.63;;;;;;;11.86;100.00;101483.44;10497909;28;20048;-58
2021/09/19 00:53:51;;;;;;;12.20;10.15;;;;;;;11.82;100.00;101490.63;10497794;28;20056;-58
2021/09/19 00:58:55;;;;;;;15.80;14.15;;;;;;;11.82;100.00;101479.28;10497196;28;20041;-59
2021/09/19 01:03:59;;;;;;;14.70;13.13;;;;;;;11.85;100.00;101489.59;10497582;28;20051;-58
2021/09/19 01:09:02;;;;;;;12.32;11.23;;;;;;;11.91;100.00;101486.69;10497016;28;20044;-58
2021/09/19 01:14:05;;;;;;;16.30;14.70;;;;;;;11.89;100.00;101485.91;10496738;28;20416;-60
2021/09/19 01:19:15;;;;;;;15.05;13.52;;;;;;;11.96;100.00;101484.69;10495434;28;20059;-58
2021/09/19 01:24:17;;;;;;;15.43;13.82;;;;;;;11.85;100.00;101479.97;10496329;28;20489;-58
2021/09/19 01:29:20;;;;;;;16.23;14.68;;;;;;;11.93;100.00;101481.38;10503337;28;20048;-58
2021/09/19 01:34:23;;;;;;;18.35;16.55;;;;;;;11.81;100.00;101481.03;10504474;28;20049;-58
2021/09/19 01:39:25;;;;;;;17.40;14.45;;;;;;;11.75;100.00;101476.13;10503962;28;20052;-60
2021/09/19 01:44:28;;;;;;;15.25;13.73;;;;;;;11.99;100.00;101481.06;10502531;28;20045;-58
2021/09/19 01:49:30;;;;;;;16.13;14.52;;;;;;;12.06;100.00;101478.03;10502335;28;20048;-58
2021/09/19 01:54:32;;;;;;;18.67;16.77;;;;;;;11.79;100.00;101474.19;10503304;28;20041;-58
2021/09/19 01:59:35;;;;;;;19.38;17.33;;;;;;;11.76;100.00;101475.19;10502574;28;20489;-58
2021/09/19 02:04:39;;;;;;;17.80;16.10;;;;;;;11.66;100.00;101466.09;10502884;28;20044;-59
2021/09/19 02:09:42;;;;;;;18.17;15.85;;;;;;;11.85;100.00;101461.59;10502458;28;20049;-59
2021/09/19 02:14:44;;;;;;;17.73;15.90;;;;;;;11.64;100.00;101462.72;10502519;28;20045;-58
2021/09/19 02:19:47;;;;;;;22.73;15.15;;;;;;;11.85;100.00;101453.75;10501815;28;20392;-60
2021/09/19 02:24:49;;;;;;;19.20;17.20;;;;;;;11.48;100.00;101452.13;10501974;28;20060;-59
2021/09/19 02:29:51;;;;;;;16.40;14.77;;;;;;;11.89;100.00;101443.94;10501936;28;20049;-58
2021/09/19 02:34:54;;;;;;;16.42;14.10;;;;;;;11.52;100.00;101440.59;10502070;28;20051;-58
2021/09/19 02:39:56;;;;;;;16.88;13.57;;;;;;;11.82;100.00;101440.78;10501055;28;20052;-58
2021/09/19 02:44:58;;;;;;;16.33;13.50;;;;;;;11.51;100.00;101433.63;10501297;28;20052;-58
2021/09/19 02:50:01;;;;;;;18.30;15.80;;;;;;;11.37;100.00;101433.50;10501193;28;20044;-59
2021/09/19 02:55:04;;;;;;;21.02;17.48;;;;;;;11.69;100.00;101430.06;10500865;28;20051;-58
2021/09/19 03:00:10;;;;;;;17.33;15.65;;;;;;;11.38;100.00;101425.56;10501133;28;20041;-58
2021/09/19 03:05:13;;;;;;;20.17;18.10;;;;;;;11.55;100.00;101435.19;10500559;28;20048;-58
2021/09/19 03:10:15;;;;;;;22.45;16.45;;;;;;;11.54;100.00;101430.84;10499658;28;20044;-58
2021/09/19 03:15:18;;;;;;;15.98;14.32;;;;;;;11.57;100.00;101420.22;10499896;28;20045;-59
2021/09/19 03:20:20;;;;;;;17.50;15.80;;;;;;;11.84;100.00;101424.94;10499682;28;20041;-58
2021/09/19 03:25:23;;;;;;;17.35;15.65;;;;;;;11.50;100.00;101424.94;10499943;28;20052;-59
2021/09/19 03:30:25;;;;;;;18.08;16.17;;;;;;;11.51;100.00;101437.09;10498109;28;20060;-58
2021/09/19 03:35:27;;;;;;;21.23;18.90;;;;;;;11.59;100.00;101431.47;10499035;28;20492;-59
2021/09/19 03:40:30;;;;;;;19.70;17.42;;;;;;;11.39;100.00;101421.16;10499169;28;20048;-59
2021/09/19 03:45:32;;;;;;;22.38;19.85;;;;;;;11.49;100.00;101420.59;10497744;28;20052;-59
2021/09/19 03:50:35;;;;;;;22.67;18.88;;;;;;;11.42;100.00;101428.88;10498542;28;20071;-59
2021/09/19 03:55:37;;;;;;;18.08;15.95;;;;;;;11.49;100.00;101427.63;10498707;28;20048;-58
2021/09/19 04:00:39;;;;;;;16.42;14.93;;;;;;;11.46;100.00;101430.41;10497380;28;20055;-59
2021/09/19 04:05:42;;;;;;;26.60;19.17;;;;;;;11.59;100.00;101430.63;10498362;28;20423;-58
2021/09/19 04:10:49;;;;;;;22.45;19.05;;;;;;;11.78;100.00;101425.25;10498103;28;20064;-59
2021/09/19 04:15:51;;;;;;;22.73;20.17;;;;;;;11.61;100.00;101429.59;10498275;28;20044;-58
2021/09/19 04:20:55;;;;;;;20.40;18.15;;;;;;;11.71;100.00;101432.59;10498450;28;20044;-59
2021/09/19 04:25:57;;;;;;;21.73;19.27;;;;;;;11.92;100.00;101437.69;10498144;28;20056;-59
2021/09/19 04:30:59;;;;;;;17.25;15.45;;;;;;;11.70;100.00;101423.03;10497704;28;20060;-59
2021/09/19 04:36:01;;;;;;;19.10;16.90;;;;;;;11.92;100.00;101430.69;10498328;28;20040;-59
2021/09/19 04:41:04;;;;;;;22.38;20.08;;;;;;;12.22;100.00;101436.06;10497416;28;20049;-58
2021/09/19 04:46:06;;;;;;;23.95;20.73;;;;;;;12.20;100.00;101437.91;10497374;28;20041;-59
2021/09/19 04:51:09;;;;;;;25.23;21.67;;;;;;;12.17;100.00;101434.59;10497382;28;20610;-59
2021/09/19 04:56:11;;;;;;;24.25;18.83;;;;;;;12.41;100.00;101435.06;10497719;28;20060;-59
2021/09/19 05:01:13;;;;;;;27.60;21.67;;;;;;;12.17;100.00;101422.34;10500142;28;20041;-59
2021/09/19 05:06:16;;;;;;;30.85;22.33;;;;;;;12.01;100.00;101424.09;10505222;28;20045;-58
2021/09/19 05:11:18;;;;;;;25.73;21.00;;;;;;;12.25;100.00;101425.41;10504923;28;20048;-59
2021/09/19 05:16:21;;;;;;;27.40;21.75;;;;;;;12.21;100.00;101423.00;10504753;28;20082;-58
2021/09/19 05:21:24;;;;;;;34.10;25.63;;;;;;;12.09;100.00;101429.78;10504068;28;20044;-58
2021/09/19 05:26:27;;;;;;;30.65;24.13;;;;;;;12.16;100.00;101422.41;10504355;28;20067;-58
2021/09/19 05:31:30;;;;;;;30.08;22.73;;;;;;;12.21;100.00;101423.84;10503986;28;20048;-59
2021/09/19 05:36:32;;;;;;;22.13;19.75;;;;;;;12.19;100.00;101422.25;10503863;28;20044;-58
2021/09/19 05:41:35;;;;;;;27.25;23.27;;;;;;;12.11;100.00;101427.06;10503396;28;20488;-59
2021/09/19 05:46:37;;;;;;;28.48;23.38;;;;;;;12.30;100.00;101427.75;10503322;28;20052;-60
2021/09/19 05:51:39;;;;;;;24.42;20.15;;;;;;;12.48;100.00;101430.31;10503391;28;20072;-58
2021/09/19 05:56:42;;;;;;;27.98;23.02;;;;;;;12.18;100.00;101428.44;10502991;28;20390;-58
2021/09/19 06:01:44;;;;;;;30.40;23.15;;;;;;;12.39;100.00;101437.78;10503046;28;20044;-58
2021/09/19 06:06:46;;;;;;;33.83;24.92;;;;;;;12.43;100.00;101438.44;10502741;28;20052;-59
2021/09/19 06:11:49;;;;;;;23.33;20.77;;;;;;;12.22;100.00;101437.81;10501086;28;20209;-58
2021/09/19 06:16:51;;;;;;;22.65;18.70;;;;;;;12.49;100.00;101442.50;10502581;28;20045;-59
2021/09/19 06:21:53;;;;;;;24.35;20.42;;;;;;;12.69;100.00;101433.50;10501053;28;20052;-58
2021/09/19 06:27:00;;;;;;;26.35;20.30;;;;;;;12.85;100.00;101444.03;10502309;28;20404;-58
2021/09/19 06:32:02;;;;;;;21.33;18.98;;;;;;;12.82;100.00;101443.22;10501684;28;20049;-58
2021/09/19 06:37:06;;;;;;;21.25;18.95;;;;;;;13.02;100.00;101444.72;10500432;28;20048;-58
2021/09/19 06:42:08;;;;;;;22.30;19.90;;;;;;;13.05;100.00;101442.88;10501282;28;20048;-60
2021/09/19 06:47:10;;;;;;;21.17;18.95;;;;;;;12.88;100.00;101446.44;10500852;28;20389;-58
2021/09/19 06:52:13;;;;;;;20.13;18.02;;;;;;;13.05;100.00;101453.41;10500835;28;20404;-59
2021/09/19 06:57:15;;;;;;;19.17;16.40;;;;;;;13.43;100.00;101448.56;10500877;28;20045;-59
2021/09/19 07:02:18;;;;;;;21.42;17.00;;;;;;;13.46;100.00;101452.78;10500593;28;20041;-60
2021/09/19 07:07:21;;;;;;;18.17;16.25;;;;;;;13.76;100.00;101447.47;10500339;28;20048;-58
2021/09/19 07:12:23;;;;;;;18.58;15.85;;;;;;;13.81;100.00;101455.94;10500585;28;20052;-58
2021/09/19 07:17:25;;;;;;;16.85;15.15;;;;;;;13.68;100.00;101455.81;10499756;28;20048;-59
2021/09/19 07:22:28;;;;;;;16.63;14.88;;;;;;;14.10;100.00;101455.94;10499175;28;20112;-59
2021/09/19 07:27:31;;;;;;;17.23;15.60;;;;;;;14.12;100.00;101464.59;10498890;28;20404;-58
2021/09/19 07:32:34;;;;;;;16.50;14.35;;;;;;;14.03;100.00;101468.63;10499325;28;20511;-59
2021/09/19 07:37:38;;;;;;;14.65;13.25;;;;;;;15.17;100.00;101469.34;10498681;28;20044;-57
2021/09/19 07:42:40;;;;;;;14.05;12.52;;;;;;;15.38;100.00;101468.88;10499440;28;20048;-58
2021/09/19 07:47:43;;;;;;;13.13;11.15;;;;;;;15.74;100.00;101475.25;10497352;28;20049;-58
2021/09/19 07:52:46;;;;;;;12.32;11.07;;;;;;;15.81;100.00;101473.91;10498951;28;20040;-58
2021/09/19 07:57:48;;;;;;;13.63;12.05;;;;;;;16.08;100.00;101478.22;10498560;28;20048;-59
2021/09/19 08:02:51;;;;;;;17.48;11.20;;;;;;;16.44;98.39;101481.84;10498326;28;20507;-60
2021/09/19 08:07:54;;;;;;;12.43;10.15;;;;;;;16.60;95.42;101481.63;10498283;28;20093;-58
2021/09/19 08:12:56;;;;;;;10.77;9.48;;;;;;;17.03;95.56;101489.09;10498674;28;20040;-58
2021/09/19 08:17:58;;;;;;;10.95;9.85;;;;;;;17.79;91.61;101486.94;10497991;28;20055;-58
2021/09/19 08:23:01;;;;;;;9.65;8.75;;;;;;;17.60;91.03;101475.09;10498902;28;20045;-58
2021/09/19 08:28:03;;;;;;;9.55;8.57;;;;;;;17.83;87.80;101480.41;10497594;28;20063;-60
2021/09/19 08:33:06;;;;;;;10.40;9.07;;;;;;;18.07;91.80;101490.97;10497868;28;20503;-57
2021/09/19 08:38:09;;;;;;;8.48;7.68;;;;;;;18.23;90.87;101498.53;10505456;28;20071;-59
2021/09/19 08:43:11;;;;;;;8.38;7.57;;;;;;;19.14;83.83;101493.09;10505973;28;20048;-59
2021/09/19 08:48:17;;;;;;;9.25;8.45;;;;;;;19.42;78.95;101496.94;10504939;28;20052;-58
2021/09/19 08:53:20;;;;;;;8.30;7.60;;;;;;;19.73;80.89;101502.31;10505571;28;20504;-60
2021/09/19 08:58:23;;;;;;;7.45;6.82;;;;;;;19.85;81.58;101496.81;10505010;28;20484;-59
2021/09/19 09:03:25;;;;;;;7.57;6.75;;;;;;;20.23;75.50;101497.13;10505173;28;20040;-59
2021/09/19 09:08:31;;;;;;;5.88;5.30;;;;;;;21.47;74.35;101485.13;10504109;28;20087;-59
2021/09/19 09:13:40;;;;;;;5.28;4.88;;;;;;;20.32;73.53;101490.97;10504797;28;20048;-58
2021/09/19 09:18:53;;;;;;;4.40;4.00;;;;;;;21.59;68.71;101482.31;10503457;28;20052;-59
2021/09/19 09:24:00;;;;;;;4.93;4.53;;;;;;;20.43;70.60;101487.41;10504591;28;20045;-59
2021/09/19 09:29:08;;;;;;;4.15;3.75;;;;;;;22.19;70.09;101485.47;10504205;28;20052;-58
2021/09/19 09:34:15;;;;;;;3.80;3.38;;;;;;;22.94;65.60;101487.97;10504141;28;20053;-59
2021/09/19 09:39:35;;;;;;;4.28;3.88;;;;;;;23.06;66.94;101487.75;10502452;28;20385;-58
2021/09/19 09:44:41;;;;;;;4.00;3.27;;;;;;;22.39;63.16;101486.25;10504096;28;20427;-58
2021/09/19 09:50:00;;;;;;;7.40;3.65;;;;;;;22.79;63.67;101493.00;10502672;28;20063;-59
2021/09/19 09:55:08;;;;;;;3.40;3.17;;;;;;;21.16;66.72;101495.06;10502057;28;20507;-58
2021/09/19 10:00:16;;;;;;;4.28;2.78;;;;;;;23.28;63.32;101484.63;10502902;28;20400;-59
2021/09/19 10:05:20;;;;;;;2.80;2.60;;;;;;;23.29;59.99;101478.31;10503177;28;20045;-58
2021/09/19 10:10:24;;;;;;;3.47;3.25;;;;;;;22.27;63.81;101490.91;10502622;28;20055;-59
2021/09/19 10:15:27;;;;;;;3.90;3.25;;;;;;;22.82;61.07;101486.53;10502792;28;20045;-59
2021/09/19 10:20:44;;;;;;;4.70;3.15;;;;;;;23.48;59.28;101482.59;10502279;28;20055;-59
2021/09/19 10:25:57;;;;;;;2.90;2.70;;;;;;;23.06;58.86;101474.41;10502485;28;20067;-59
2021/09/19 10:31:28;;;;;;;3.53;2.70;;;;;;;25.46;52.22;101469.91;10501813;28;20452;-58
2021/09/19 10:36:50;;;;;;;3.15;2.92;;;;;;;22.19;63.34;101476.63;10500980;28;20052;-58
2021/09/19 10:42:18;;;;;;;3.63;3.30;;;;;;;23.13;59.69;101465.69;10501374;28;20052;-59
2021/09/19 10:47:26;;;;;;;4.07;3.03;;;;;;;24.98;52.30;101461.66;10502090;28;20060;-58
2021/09/19 10:52:44;;;;;;;2.75;2.53;;;;;;;24.18;58.15;101460.31;10500745;28;20504;-60
2021/09/19 10:58:11;;;;;;;3.65;3.35;;;;;;;22.26;58.16;101461.72;10499835;28;20045;-59
2021/09/19 11:03:28;;;;;;;3.50;2.40;;;;;;;25.21;52.92;101469.88;10500403;28;20511;-60
2021/09/19 11:08:40;;;;;;;2.90;2.67;;;;;;;22.53;58.73;101470.75;10498668;28;20052;-59
2021/09/19 11:13:53;;;;;;;2.35;2.22;;;;;;;24.46;54.94;101473.44;10501305;28;20056;-59
2021/09/19 11:19:01;;;;;;;4.53;2.60;;;;;;;21.81;60.54;101471.31;10499920;28;20049;-59
2021/09/19 11:24:14;;;;;;;6.90;2.83;;;;;;;23.62;54.29;101475.03;10499555;28;20049;-59
2021/09/19 11:29:24;;;;;;;2.63;2.35;;;;;;;22.77;55.95;101470.13;10500127;28;20079;-58
2021/09/19 11:34:27;;;;;;;3.60;2.25;;;;;;;25.17;53.30;101468.56;10499678;28;20051;-59
2021/09/19 11:39:32;;;;;;;2.78;2.58;;;;;;;22.49;56.25;101469.34;10498938;28;20508;-59
2021/09/19 11:44:36;;;;;;;3.45;3.13;;;;;;;22.88;61.73;101477.94;10498930;28;20514;-58
2021/09/19 11:49:43;;;;;;;2.60;2.45;;;;;;;22.29;61.26;101480.09;10498880;28;20053;-59
2021/09/19 11:54:45;;;;;;;3.03;2.20;;;;;;;24.20;55.69;101462.81;10498778;28;20048;-59
2021/09/19 11:59:48;;;;;;;2.97;2.38;;;;;;;22.24;58.60;101474.34;10498101;28;20049;-59
2021/09/19 12:04:51;;;;;;;2.60;2.40;;;;;;;23.69;57.38;101470.75;10498322;28;20373;-59
2021/09/19 12:09:53;;;;;;;2.78;2.58;;;;;;;22.08;60.58;101477.66;10496905;28;20052;-58
2021/09/19 12:14:56;;;;;;;3.83;2.90;;;;;;;22.08;61.24;101462.50;10498840;28;20044;-58
2021/09/19 12:20:00;;;;;;;2.53;2.33;;;;;;;24.13;56.52;101456.44;10497905;28;20044;-58
2021/09/19 12:25:05;;;;;;;4.05;2.78;;;;;;;25.33;53.69;101446.28;10497603;28;20507;-60
2021/09/19 12:30:13;;;;;;;4.05;2.95;;;;;;;23.69;55.12;101446.69;10497891;28;20044;-59
2021/09/19 12:35:22;;;;;;;2.95;2.75;;;;;;;22.71;58.58;101452.06;10498159;28;20048;-59
2021/09/19 12:40:26;;;;;;;2.40;2.20;;;;;;;24.51;54.08;101441.69;10497616;28;20051;-59
2021/09/19 12:45:28;;;;;;;3.50;2.97;;;;;;;23.22;55.80;101425.66;10498236;28;20044;-59
2021/09/19 12:50:30;;;;;;;3.55;2.10;;;;;;;23.85;53.45;101437.94;10497503;28;20083;-58
2021/09/19 12:55:33;;;;;;;1.98;1.85;;;;;;;24.13;51.16;101421.69;10497440;28;20051;-59
2021/09/19 13:00:35;;;;;;;5.00;1.95;;;;;;;25.44;50.35;101421.81;10497411;28;20049;-59
2021/09/19 13:05:38;;;;;;;3.55;1.73;;;;;;;24.58;55.19;101418.63;10497200;28;20480;-59
2021/09/19 13:10:40;;;;;;;2.08;1.70;;;;;;;24.32;51.63;101413.34;10496866;28;20492;-59
2021/09/19 13:15:43;;;;;;;1.50;1.40;;;;;;;24.78;50.03;101407.59;10497019;28;20049;-59
2021/09/19 13:20:46;;;;;;;3.80;3.47;;;;;;;22.35;59.44;101406.66;10497109;28;20128;-59
2021/09/19 13:25:48;;;;;;;4.25;3.85;;;;;;;22.13;57.35;101411.41;10504849;28;20063;-59
2021/09/19 13:30:51;;;;;;;5.00;4.60;;;;;;;21.46;61.60;101408.00;10503534;28;20056;-58
2021/09/19 13:35:53;;;;;;;4.68;3.20;;;;;;;23.32;54.33;101408.53;10503873;28;20056;-59
2021/09/19 13:40:56;;;;;;;3.05;2.85;;;;;;;23.54;52.82;101395.66;10503536;28;20052;-59
2021/09/19 13:45:59;;;;;;;2.38;2.17;;;;;;;25.57;50.51;101405.19;10504211;28;20045;-58
2021/09/19 13:51:01;;;;;;;3.80;2.22;;;;;;;23.54;50.96;101403.66;10503491;28;20057;-59
2021/09/19 13:56:04;;;;;;;2.38;2.17;;;;;;;23.15;53.65;101415.59;10503865;28;20132;-60
2021/09/19 14:01:06;;;;;;;2.40;2.20;;;;;;;21.98;56.08;101424.38;10503238;28;20041;-59
2021/09/19 14:06:09;;;;;;;2.83;2.60;;;;;;;21.43;59.45;101424.25;10503044;28;20124;-59
2021/09/19 14:11:11;;;;;;;2.78;2.58;;;;;;;21.24;60.02;101430.47;10502981;28;20064;-59
2021/09/19 14:16:14;;;;;;;2.67;2.47;;;;;;;20.81;60.12;101432.59;10502572;28;20128;-59
2021/09/19 14:21:16;;;;;;;2.33;2.15;;;;;;;21.12;62.01;101424.47;10502101;28;20045;-59
2021/09/19 14:26:19;;;;;;;2.35;2.20;;;;;;;20.58;61.56;101424.00;10502262;28;20493;-59
2021/09/19 14:31:21;;;;;;;3.05;2.40;;;;;;;20.50;60.95;101427.34;10501759;28;20059;-59
2021/09/19 14:36:24;;;;;;;3.92;2.53;;;;;;;21.18;62.95;101428.38;10501488;28;20044;-58
2021/09/19 14:41:26;;;;;;;2.40;2.20;;;;;;;20.70;61.89;101428.25;10500158;28;20519;-59
2021/09/19 14:46:30;;;;;;;2.85;2.65;;;;;;;20.96;62.54;101427.69;10500897;28;20423;-58
2021/09/19 14:51:32;;;;;;;2.58;2.47;;;;;;;20.89;64.11;101431.91;10501546;28;20056;-59
2021/09/19 14:56:35;;;;;;;2.60;2.40;;;;;;;20.80;62.45;101435.41;10500925;28;20044;-58
2021/09/19 15:01:37;;;;;;;2.05;1.95;;;;;;;21.84;60.69;101427.53;10500766;28;20067;-59
2021/09/19 15:06:40;;;;;;;1.95;1.80;;;;;;;21.95;59.57;101419.34;10500186;28;20128;-59
2021/09/19 15:11:43;;;;;;;3.75;2.22;;;;;;;20.33;62.27;101426.19;10499146;28;20052;-57
2021/09/19 15:16:46;;;;;;;2.90;2.55;;;;;;;20.41;62.84;101430.84;10499815;28;20049;-58
2021/09/19 15:21:48;;;;;;;4.43;2.20;;;;;;;20.17;65.09;101428.53;10499879;28;20044;-58
2021/09/19 15:26:51;;;;;;;2.15;1.95;;;;;;;19.80;66.60;101429.09;10500110;28;20159;-58
2021/09/19 15:31:53;;;;;;;2.72;1.95;;;;;;;19.62;65.44;101442.13;10498875;28;20048;-57
2021/09/19 15:36:56;;;;;;;1.88;1.77;;;;;;;19.83;69.80;101447.44;10499465;28;20044;-57
2021/09/19 15:41:58;;;;;;;1.90;1.80;;;;;;;20.06;68.11;101441.94;10498775;28;20053;-58
2021/09/19 15:47:01;;;;;;;4.10;1.85;;;;;;;19.44;69.08;101439.22;10498413;28;20170;-58
2021/09/19 15:52:03;;;;;;;1.98;1.88;;;;;;;19.84;68.72;101438.50;10498766;28;20060;-58
2021/09/19 15:57:06;;;;;;;1.33;1.23;;;;;;;19.67;66.78;101440.75;10498740;28;20053;-57
2021/09/19 16:02:09;;;;;;;2.05;1.40;;;;;;;19.53;67.26;101435.78;10498367;28;20052;-59
2021/09/19 16:07:12;;;;;;;2.72;1.40;;;;;;;19.77;64.79;101437.31;10498398;28;20403;-58
2021/09/19 16:12:15;;;;;;;4.32;1.60;;;;;;;19.34;68.67;101441.81;10498190;28;20411;-57
2021/09/19 16:17:17;;;;;;;2.03;1.67;;;;;;;18.96;70.21;101443.19;10498162;28;20059;-59
2021/09/19 16:22:19;;;;;;;1.90;1.65;;;;;;;18.51;71.36;101451.28;10498516;28;20056;-57
2021/09/19 16:27:22;;;;;;;3.50;2.03;;;;;;;18.68;72.44;101449.91;10498600;28;20060;-58
2021/09/19 16:32:24;;;;;;;3.40;2.00;;;;;;;18.49;74.13;101461.16;10497753;28;20527;-59
2021/09/19 16:37:26;;;;;;;2.90;2.28;;;;;;;18.12;77.13;101466.72;10497717;28;20493;-57
2021/09/19 16:42:29;;;;;;;2.10;2.00;;;;;;;17.86;77.73;101469.59;10496375;28;20044;-57
2021/09/19 16:47:32;;;;;;;3.53;2.10;;;;;;;17.72;80.70;101473.31;10497716;28;20134;-59
2021/09/19 16:52:34;;;;;;;2.05;1.92;;;;;;;17.73;80.61;101476.78;10497390;28;20056;-57
2021/09/19 16:57:38;;;;;;;4.10;2.03;;;;;;;17.56;80.55;101484.22;10502297;28;20045;-57
2021/09/19 17:02:42;;;;;;;4.35;2.78;;;;;;;17.40;83.86;101487.19;10505034;28;20048;-58
2021/09/19 17:07:47;;;;;;;2.75;2.00;;;;;;;17.38;84.91;101489.13;10504688;28;20119;-58
2021/09/19 17:12:51;;;;;;;2.85;2.08;;;;;;;17.26;84.71;101492.66;10504741;28;20127;-57
2021/09/19 17:17:54;;;;;;;2.70;2.50;;;;;;;17.31;81.29;101494.97;10504530;28;20049;-57
2021/09/19 17:22:56;;;;;;;2.30;2.10;;;;;;;17.05;83.19;101498.59;10504417;28;20055;-58
2021/09/19 17:27:58;;;;;;;2.35;2.20;;;;;;;16.93;81.93;101507.44;10504676;28;20409;-57
2021/09/19 17:33:01;;;;;;;3.67;2.42;;;;;;;16.82;81.68;101507.34;10504001;28;20064;-58
2021/09/19 17:38:03;;;;;;;2.17;1.90;;;;;;;16.58;83.61;101507.31;10504177;28;20053;-56
2021/09/19 17:43:05;;;;;;;2.75;2.40;;;;;;;16.49;83.77;101511.44;10503645;28;20045;-58
2021/09/19 17:48:08;;;;;;;4.75;2.45;;;;;;;16.38;84.90;101517.50;10503630;28;20055;-57
2021/09/19 17:53:11;;;;;;;1.98;1.80;;;;;;;16.06;87.51;101525.03;10503617;28;20044;-58
2021/09/19 17:58:14;;;;;;;5.00;2.60;;;;;;;16.03;87.92;101515.53;10503721;28;20045;-57
2021/09/19 18:03:17;;;;;;;2.25;2.15;;;;;;;15.50;91.72;101531.41;10503314;28;20083;-57
2021/09/19 18:08:20;;;;;;;9.63;3.03;;;;;;;15.63;89.32;101538.47;10502070;28;20063;-58
2021/09/19 18:13:24;;;;;;;7.38;2.40;;;;;;;15.42;85.33;101541.59;10501505;28;20480;-58
2021/09/19 18:18:26;;;;;;;3.70;2.30;;;;;;;15.39;87.79;101547.91;10502320;28;20041;-58
2021/09/19 18:23:29;;;;;;;2.72;2.53;;;;;;;15.18;89.70;101547.53;10502707;28;20054;-58
2021/09/19 18:28:36;;;;;;;2.47;2.22;;;;;;;15.09;88.99;101558.69;10501844;28;20052;-55
2021/09/19 18:33:40;;;;;;;2.30;2.20;;;;;;;14.91;87.25;101559.84;10502204;28;20071;-56
2021/09/19 18:38:42;;;;;;;2.60;2.47;;;;;;;14.95;88.03;101559.56;10501661;28;20075;-56
2021/09/19 18:43:44;;;;;;;2.45;2.22;;;;;;;14.78;88.63;101563.28;10502071;28;20052;-57
2021/09/19 18:48:47;;;;;;;2.65;2.35;;;;;;;15.00;86.57;101561.91;10500984;28;20079;-57
2021/09/19 18:53:49;;;;;;;2.63;2.33;;;;;;;15.04;89.09;101568.69;10501058;28;20206;-56
2021/09/19 18:58:52;;;;;;;2.95;2.30;;;;;;;14.83;90.25;101574.38;10500951;28;20076;-56
2021/09/19 19:03:54;;;;;;;3.15;2.90;;;;;;;14.57;90.39;101577.75;10501345;28;20052;-58
2021/09/19 19:08:57;;;;;;;3.03;2.83;;;;;;;14.42;89.74;101580.38;10500813;28;20135;-57
2021/09/19 19:14:03;;;;;;;4.72;3.10;;;;;;;14.23;90.40;101583.28;10500668;28;20050;-58
2021/09/19 19:19:06;;;;;;;3.58;3.10;;;;;;;14.27;91.00;101584.81;10499580;28;20045;-56
2021/09/19 19:24:09;;;;;;;3.20;2.90;;;;;;;14.25;92.75;101596.38;10500300;28;20040;-56
2021/09/19 19:29:11;;;;;;;3.45;3.15;;;;;;;13.84;93.68;101600.53;10499455;28;20052;-57
2021/09/19 19:34:14;;;;;;;3.55;3.25;;;;;;;13.73;94.23;101609.06;10500548;28;20059;-57
2021/09/19 19:39:17;;;;;;;4.45;3.90;;;;;;;13.65;94.72;101611.28;10499142;28;20047;-57
2021/09/19 19:44:19;;;;;;;3.90;3.35;;;;;;;13.86;92.83;101609.19;10499781;28;20051;-56
2021/09/19 19:49:22;;;;;;;3.60;3.28;;;;;;;13.84;93.44;101620.75;10497646;28;20067;-58
2021/09/19 19:54:25;;;;;;;4.88;4.43;;;;;;;13.47;94.68;101621.06;10498898;28;20055;-56
2021/09/19 19:59:27;;;;;;;4.43;3.10;;;;;;;13.39;96.41;101625.91;10498847;28;20074;-57
2021/09/19 20:04:29;;;;;;;6.60;4.03;;;;;;;13.24;97.56;101626.72;10499169;28;20046;-58
2021/09/19 20:09:32;;;;;;;4.90;3.63;;;;;;;13.05;96.91;101622.47;10498510;28;20063;-55
2021/09/19 20:14:36;;;;;;;3.40;3.00;;;;;;;13.15;97.49;101636.81;10497080;28;20477;-56
2021/09/19 20:19:40;;;;;;;4.13;3.70;;;;;;;13.12;98.90;101633.50;10496988;28;20048;-57
2021/09/19 20:24:43;;;;;;;4.75;3.67;;;;;;;13.00;97.61;101638.50;10498700;28;20059;-57
2021/09/19 20:29:48;;;;;;;7.65;4.32;;;;;;;12.66;100.00;101636.84;10497827;28;20059;-56
2021/09/19 20:34:50;;;;;;;5.78;4.28;;;;;;;12.52;100.00;101639.31;10512166;28;20048;-55
2021/09/19 20:39:52;;;;;;;5.97;4.07;;;;;;;12.47;100.00;101636.94;10510305;28;20535;-56
2021/09/19 20:44:56;;;;;;;7.28;4.38;;;;;;;12.49;100.00;101648.22;10511361;28;20485;-56
2021/09/19 20:49:58;;;;;;;7.70;4.97;;;;;;;12.44;100.00;101656.34;10511226;28;20492;-58
2021/09/19 20:55:01;;;;;;;4.93;4.43;;;;;;;12.57;100.00;101659.16;10511370;28;20207;-55
2021/09/19 21:00:05;;;;;;;5.45;4.93;;;;;;;12.59;100.00;101664.34;10510936;28;20048;-56
2021/09/19 21:05:08;;;;;;;8.13;5.32;;;;;;;12.71;100.00;101663.72;10511173;28;20412;-57
2021/09/19 21:10:11;;;;;;;5.65;5.15;;;;;;;12.54;100.00;101677.72;10510902;28;20486;-56
2021/09/19 21:15:13;;;;;;;5.38;4.88;;;;;;;12.61;100.00;101689.63;10510984;28;20051;-54
2021/09/19 21:20:16;;;;;;;6.75;5.20;;;;;;;12.61;100.00;101684.34;10509681;28;20044;-56
2021/09/19 21:25:18;;;;;;;6.68;5.07;;;;;;;12.63;100.00;101684.28;10510604;28;20052;-55
2021/09/19 21:30:22;;;;;;;5.50;4.70;;;;;;;12.78;100.00;101685.25;10510511;28;20528;-53
2021/09/19 21:35:24;;;;;;;7.97;5.05;;;;;;;12.96;98.75;101684.28;10511496;28;20051;-57
2021/09/19 21:40:27;;;;;;;5.43;4.32;;;;;;;12.92;98.48;101693.25;10510258;28;20060;-57
2021/09/19 21:45:29;;;;;;;5.47;4.97;;;;;;;12.83;98.52;101691.97;10503769;28;20041;-55
2021/09/19 21:50:32;;;;;;;5.85;4.70;;;;;;;12.72;100.00;101690.84;10502523;28;20053;-57
2021/09/19 21:55:34;;;;;;;5.57;5.00;;;;;;;12.53;99.26;101688.31;10502339;28;20048;-56
2021/09/19 22:00:42;;;;;;;5.45;4.88;;;;;;;12.56;99.40;101707.41;10503503;28;20049;-55
2021/09/19 22:05:45;;;;;;;8.90;4.95;;;;;;;12.25;100.00;101706.34;10503369;28;20053;-58
2021/09/19 22:11:01;;;;;;;5.10;4.60;;;;;;;12.11;100.00;101713.19;10503003;28;20119;-57
2021/09/19 22:16:04;;;;;;;7.95;5.35;;;;;;;11.94;100.00;101714.84;10501684;28;20045;-59
2021/09/19 22:21:06;;;;;;;5.68;4.70;;;;;;;11.93;100.00;101721.00;10502634;28;20064;-58
2021/09/19 22:26:11;;;;;;;6.82;4.90;;;;;;;11.68;100.00;101716.06;10502287;28;20054;-58
2021/09/19 22:31:14;;;;;;;6.47;4.68;;;;;;;11.99;100.00;101720.72;10501968;28;20055;-58
2021/09/19 22:36:16;;;;;;;5.30;4.80;;;;;;;11.83;100.00;101724.97;10501926;28;20131;-58
2021/09/19 22:41:18;;;;;;;6.00;5.40;;;;;;;11.52;100.00;101732.53;10501665;28;20048;-58
2021/09/19 22:46:21;;;;;;;9.27;6.13;;;;;;;11.64;100.00;101725.00;10501399;28;20492;-58
2021/09/19 22:51:23;;;;;;;7.82;5.40;;;;;;;11.36;100.00;101728.91;10501199;28;20098;-58
2021/09/19 22:56:26;;;;;;;6.97;5.45;;;;;;;11.44;100.00;101736.41;10500789;28;20518;-59